sensor_id;sensor_type;location;lat;lon;timestamp;temperature;humidity
32476;DHT22;18929;48.008;10.882;2023-01-15T00:01:21;9.80;99.90
32476;DHT22;18929;48.008;10.882;2023-01-15T00:03:48;9.80;99.90
32476;DHT22;18929;48.008;10.882;2023-01-15T00:06:15;10.00;99.90
32476;DHT22;18929;48.008;10.882;2023-01-15T00:08:42;10.00;99.90
32476;DHT22;18929;48.008;10.882;2023-01-15T00:11:09;10.00;99.90
32476;DHT22;18929;48.008;10.882;2023-01-15T00:13:36;10.00;99.90
32476;DHT22;18929;48.008;10.882;2023-01-15T00:16:03;9.80;99.90
32476;DHT22;18929;48.008;10.882;2023-01-15T00:18:31;10.00;99.90
32476;DHT22;18929;48.008;10.882;2023-01-15T00:20:58;10.50;99.90
32476;DHT22;18929;48.008;10.882;2023-01-15T00:23:25;10.60;99.90
32476;DHT22;18929;48.008;10.882;2023-01-15T00:26:10;10.50;99.90
32476;DHT22;18929;48.008;10.882;2023-01-15T00:28:55;10.30;99.90
32476;DHT22;18929;48.008;10.882;2023-01-15T00:31:22;10.00;99.90
32476;DHT22;18929;48.008;10.882;2023-01-15T00:33:50;10.00;99.90
32476;DHT22;18929;48.008;10.882;2023-01-15T00:36:17;10.20;99.90
32476;DHT22;18929;48.008;10.882;2023-01-15T00:38:44;10.20;99.90
32476;DHT22;18929;48.008;10.882;2023-01-15T00:41:10;10.10;99.90
32476;DHT22;18929;48.008;10.882;2023-01-15T00:43:37;10.10;99.90
32476;DHT22;18929;48.008;10.882;2023-01-15T00:46:04;10.40;99.90
32476;DHT22;18929;48.008;10.882;2023-01-15T00:48:33;10.60;99.90
32476;DHT22;18929;48.008;10.882;2023-01-15T00:51:01;10.80;99.90
32476;DHT22;18929;48.008;10.882;2023-01-15T00:53:28;10.70;99.90
32476;DHT22;18929;48.008;10.882;2023-01-15T00:55:55;10.70;99.90
32476;DHT22;18929;48.008;10.882;2023-01-15T00:58:22;10.80;99.90
32476;DHT22;18929;48.008;10.882;2023-01-15T01:00:51;10.80;99.90
32476;DHT22;18929;48.008;10.882;2023-01-15T01:03:18;10.80;99.90
32476;DHT22;18929;48.008;10.882;2023-01-15T01:05:45;10.90;99.90
32476;DHT22;18929;48.008;10.882;2023-01-15T01:08:14;10.80;99.90
32476;DHT22;18929;48.008;10.882;2023-01-15T01:10:40;10.80;99.90
32476;DHT22;18929;48.008;10.882;2023-01-15T01:13:07;10.90;99.90
32476;DHT22;18929;48.008;10.882;2023-01-15T01:15:35;10.80;99.90
32476;DHT22;18929;48.008;10.882;2023-01-15T01:18:02;11.00;99.90
32476;DHT22;18929;48.008;10.882;2023-01-15T01:20:29;10.90;99.90
32476;DHT22;18929;48.008;10.882;2023-01-15T01:22:56;10.90;99.90
32476;DHT22;18929;48.008;10.882;2023-01-15T01:25:24;10.90;99.90
32476;DHT22;18929;48.008;10.882;2023-01-15T01:27:51;11.00;99.90
32476;DHT22;18929;48.008;10.882;2023-01-15T01:30:18;11.00;99.90
32476;DHT22;18929;48.008;10.882;2023-01-15T01:32:44;11.00;99.90
32476;DHT22;18929;48.008;10.882;2023-01-15T01:35:11;10.90;99.90
32476;DHT22;18929;48.008;10.882;2023-01-15T01:37:38;11.00;99.90
32476;DHT22;18929;48.008;10.882;2023-01-15T01:40:05;11.00;99.90
32476;DHT22;18929;48.008;10.882;2023-01-15T01:42:33;11.10;99.90
32476;DHT22;18929;48.008;10.882;2023-01-15T01:45:05;10.90;99.90
32476;DHT22;18929;48.008;10.882;2023-01-15T01:47:32;11.00;99.90
32476;DHT22;18929;48.008;10.882;2023-01-15T01:50:01;10.90;99.90
32476;DHT22;18929;48.008;10.882;2023-01-15T01:52:29;11.00;99.90
32476;DHT22;18929;48.008;10.882;2023-01-15T01:54:58;10.70;99.90
32476;DHT22;18929;48.008;10.882;2023-01-15T01:57:26;10.90;99.90
32476;DHT22;18929;48.008;10.882;2023-01-15T01:59:54;10.80;99.90
32476;DHT22;18929;48.008;10.882;2023-01-15T02:02:22;10.70;99.90
32476;DHT22;18929;48.008;10.882;2023-01-15T02:04:49;10.60;99.90
32476;DHT22;18929;48.008;10.882;2023-01-15T02:07:16;10.50;99.90
32476;DHT22;18929;48.008;10.882;2023-01-15T02:09:43;10.50;99.90
32476;DHT22;18929;48.008;10.882;2023-01-15T02:12:11;10.30;99.90
32476;DHT22;18929;48.008;10.882;2023-01-15T02:14:41;10.20;99.90
32476;DHT22;18929;48.008;10.882;2023-01-15T02:17:12;10.20;99.90
32476;DHT22;18929;48.008;10.882;2023-01-15T02:19:44;10.00;99.90
32476;DHT22;18929;48.008;10.882;2023-01-15T02:22:17;10.10;99.90
32476;DHT22;18929;48.008;10.882;2023-01-15T02:24:48;9.70;99.90
32476;DHT22;18929;48.008;10.882;2023-01-15T02:27:19;9.90;99.90
32476;DHT22;18929;48.008;10.882;2023-01-15T02:29:48;9.80;99.90
32476;DHT22;18929;48.008;10.882;2023-01-15T02:32:18;10.10;99.90
32476;DHT22;18929;48.008;10.882;2023-01-15T02:34:47;10.00;99.90
32476;DHT22;18929;48.008;10.882;2023-01-15T02:37:17;10.10;99.90
32476;DHT22;18929;48.008;10.882;2023-01-15T02:39:46;10.40;99.90
32476;DHT22;18929;48.008;10.882;2023-01-15T02:42:13;10.40;99.90
32476;DHT22;18929;48.008;10.882;2023-01-15T02:44:44;9.70;99.90
32476;DHT22;18929;48.008;10.882;2023-01-15T02:47:12;9.90;99.90
32476;DHT22;18929;48.008;10.882;2023-01-15T02:49:40;9.90;99.90
32476;DHT22;18929;48.008;10.882;2023-01-15T02:52:09;9.70;99.90
32476;DHT22;18929;48.008;10.882;2023-01-15T02:54:39;10.10;99.90
32476;DHT22;18929;48.008;10.882;2023-01-15T02:57:07;10.00;99.90
32476;DHT22;18929;48.008;10.882;2023-01-15T02:59:36;9.80;99.90
32476;DHT22;18929;48.008;10.882;2023-01-15T03:02:05;10.10;99.90
32476;DHT22;18929;48.008;10.882;2023-01-15T03:04:34;9.90;99.90
32476;DHT22;18929;48.008;10.882;2023-01-15T03:07:04;9.70;99.90
32476;DHT22;18929;48.008;10.882;2023-01-15T03:09:32;9.90;99.90
32476;DHT22;18929;48.008;10.882;2023-01-15T03:12:02;9.50;99.90
32476;DHT22;18929;48.008;10.882;2023-01-15T03:14:35;9.60;99.90
32476;DHT22;18929;48.008;10.882;2023-01-15T03:17:07;9.40;99.90
32476;DHT22;18929;48.008;10.882;2023-01-15T03:19:36;9.80;99.90
32476;DHT22;18929;48.008;10.882;2023-01-15T03:22:06;9.90;99.90
32476;DHT22;18929;48.008;10.882;2023-01-15T03:24:37;9.90;99.90
32476;DHT22;18929;48.008;10.882;2023-01-15T03:27:05;10.00;99.90
32476;DHT22;18929;48.008;10.882;2023-01-15T03:29:33;9.70;99.90
32476;DHT22;18929;48.008;10.882;2023-01-15T03:32:02;9.60;99.90
32476;DHT22;18929;48.008;10.882;2023-01-15T03:34:32;9.50;99.90
32476;DHT22;18929;48.008;10.882;2023-01-15T03:37:00;9.70;99.90
32476;DHT22;18929;48.008;10.882;2023-01-15T03:39:28;9.60;99.90
32476;DHT22;18929;48.008;10.882;2023-01-15T03:41:58;9.50;99.90
32476;DHT22;18929;48.008;10.882;2023-01-15T03:44:30;9.70;99.90
32476;DHT22;18929;48.008;10.882;2023-01-15T03:47:06;9.80;99.90
32476;DHT22;18929;48.008;10.882;2023-01-15T03:49:45;9.70;99.90
32476;DHT22;18929;48.008;10.882;2023-01-15T03:52:15;9.70;99.90
32476;DHT22;18929;48.008;10.882;2023-01-15T03:54:47;9.90;99.90
32476;DHT22;18929;48.008;10.882;2023-01-15T03:57:18;9.50;99.90
32476;DHT22;18929;48.008;10.882;2023-01-15T03:59:47;9.50;99.90
32476;DHT22;18929;48.008;10.882;2023-01-15T04:02:16;9.60;99.90
32476;DHT22;18929;48.008;10.882;2023-01-15T04:04:45;9.40;99.90
32476;DHT22;18929;48.008;10.882;2023-01-15T04:07:12;10.10;99.90
32476;DHT22;18929;48.008;10.882;2023-01-15T04:09:40;10.50;99.90
32476;DHT22;18929;48.008;10.882;2023-01-15T04:12:07;10.20;99.90
32476;DHT22;18929;48.008;10.882;2023-01-15T04:14:33;10.40;99.90
32476;DHT22;18929;48.008;10.882;2023-01-15T04:17:00;10.50;99.90
32476;DHT22;18929;48.008;10.882;2023-01-15T04:19:27;10.30;99.90
32476;DHT22;18929;48.008;10.882;2023-01-15T04:21:55;10.50;99.90
32476;DHT22;18929;48.008;10.882;2023-01-15T04:24:22;10.60;99.90
32476;DHT22;18929;48.008;10.882;2023-01-15T04:26:49;10.40;99.90
32476;DHT22;18929;48.008;10.882;2023-01-15T04:29:16;10.70;99.90
32476;DHT22;18929;48.008;10.882;2023-01-15T04:31:43;10.60;99.90
32476;DHT22;18929;48.008;10.882;2023-01-15T04:34:09;10.60;99.90
32476;DHT22;18929;48.008;10.882;2023-01-15T04:36:36;10.40;99.90
32476;DHT22;18929;48.008;10.882;2023-01-15T04:39:04;10.50;99.90
32476;DHT22;18929;48.008;10.882;2023-01-15T04:41:31;10.50;99.90
32476;DHT22;18929;48.008;10.882;2023-01-15T04:44:16;10.10;99.90
32476;DHT22;18929;48.008;10.882;2023-01-15T04:46:44;10.20;99.90
32476;DHT22;18929;48.008;10.882;2023-01-15T04:49:12;10.00;99.90
32476;DHT22;18929;48.008;10.882;2023-01-15T04:51:39;9.70;99.90
32476;DHT22;18929;48.008;10.882;2023-01-15T04:54:08;9.90;99.90
32476;DHT22;18929;48.008;10.882;2023-01-15T04:56:37;9.40;99.90
32476;DHT22;18929;48.008;10.882;2023-01-15T04:59:04;8.80;99.90
32476;DHT22;18929;48.008;10.882;2023-01-15T05:01:31;8.90;99.90
32476;DHT22;18929;48.008;10.882;2023-01-15T05:03:59;8.50;99.90
32476;DHT22;18929;48.008;10.882;2023-01-15T05:06:26;8.30;99.90
32476;DHT22;18929;48.008;10.882;2023-01-15T05:08:53;8.80;99.90
32476;DHT22;18929;48.008;10.882;2023-01-15T05:11:21;8.80;99.90
32476;DHT22;18929;48.008;10.882;2023-01-15T05:13:48;8.70;99.90
32476;DHT22;18929;48.008;10.882;2023-01-15T05:16:15;8.60;99.90
32476;DHT22;18929;48.008;10.882;2023-01-15T05:18:43;8.60;99.90
32476;DHT22;18929;48.008;10.882;2023-01-15T05:21:14;8.80;99.90
32476;DHT22;18929;48.008;10.882;2023-01-15T05:23:42;8.80;99.90
32476;DHT22;18929;48.008;10.882;2023-01-15T05:26:09;8.90;99.90
32476;DHT22;18929;48.008;10.882;2023-01-15T05:28:37;9.10;99.90
32476;DHT22;18929;48.008;10.882;2023-01-15T05:31:05;8.90;99.90
32476;DHT22;18929;48.008;10.882;2023-01-15T05:33:33;8.80;99.90
32476;DHT22;18929;48.008;10.882;2023-01-15T05:36:00;8.80;99.90
32476;DHT22;18929;48.008;10.882;2023-01-15T05:38:27;8.80;99.90
32476;DHT22;18929;48.008;10.882;2023-01-15T05:40:54;9.00;99.90
32476;DHT22;18929;48.008;10.882;2023-01-15T05:43:21;9.00;99.90
32476;DHT22;18929;48.008;10.882;2023-01-15T05:45:49;9.00;99.90
32476;DHT22;18929;48.008;10.882;2023-01-15T05:48:16;9.30;99.90
32476;DHT22;18929;48.008;10.882;2023-01-15T05:50:43;9.20;99.90
32476;DHT22;18929;48.008;10.882;2023-01-15T05:53:10;9.20;99.90
32476;DHT22;18929;48.008;10.882;2023-01-15T05:55:36;9.40;99.90
32476;DHT22;18929;48.008;10.882;2023-01-15T05:58:03;9.20;99.90
32476;DHT22;18929;48.008;10.882;2023-01-15T06:00:30;8.90;99.90
32476;DHT22;18929;48.008;10.882;2023-01-15T06:02:58;9.10;99.90
32476;DHT22;18929;48.008;10.882;2023-01-15T06:05:25;8.90;99.90
32476;DHT22;18929;48.008;10.882;2023-01-15T06:07:52;8.60;99.90
32476;DHT22;18929;48.008;10.882;2023-01-15T06:10:19;9.10;99.90
32476;DHT22;18929;48.008;10.882;2023-01-15T06:12:45;8.90;99.90
32476;DHT22;18929;48.008;10.882;2023-01-15T06:15:12;9.10;99.90
32476;DHT22;18929;48.008;10.882;2023-01-15T06:17:39;8.90;99.90
32476;DHT22;18929;48.008;10.882;2023-01-15T06:20:08;8.90;99.90
32476;DHT22;18929;48.008;10.882;2023-01-15T06:22:36;9.00;99.90
32476;DHT22;18929;48.008;10.882;2023-01-15T06:25:03;9.00;99.90
32476;DHT22;18929;48.008;10.882;2023-01-15T06:27:31;9.20;99.90
32476;DHT22;18929;48.008;10.882;2023-01-15T06:29:57;8.90;99.90
32476;DHT22;18929;48.008;10.882;2023-01-15T06:32:24;9.00;99.90
32476;DHT22;18929;48.008;10.882;2023-01-15T06:34:51;8.90;99.90
32476;DHT22;18929;48.008;10.882;2023-01-15T06:37:19;9.20;99.90
32476;DHT22;18929;48.008;10.882;2023-01-15T06:39:46;9.10;99.90
32476;DHT22;18929;48.008;10.882;2023-01-15T06:42:13;8.90;99.90
32476;DHT22;18929;48.008;10.882;2023-01-15T06:44:57;8.90;99.90
32476;DHT22;18929;48.008;10.882;2023-01-15T06:47:42;9.10;99.90
32476;DHT22;18929;48.008;10.882;2023-01-15T06:50:10;9.30;99.90
32476;DHT22;18929;48.008;10.882;2023-01-15T06:52:39;9.00;99.90
32476;DHT22;18929;48.008;10.882;2023-01-15T06:55:06;8.80;99.90
32476;DHT22;18929;48.008;10.882;2023-01-15T06:57:33;8.70;99.90
32476;DHT22;18929;48.008;10.882;2023-01-15T07:00:03;8.90;99.90
32476;DHT22;18929;48.008;10.882;2023-01-15T07:02:30;9.20;99.90
32476;DHT22;18929;48.008;10.882;2023-01-15T07:04:57;9.20;99.90
32476;DHT22;18929;48.008;10.882;2023-01-15T07:07:24;9.00;99.90
32476;DHT22;18929;48.008;10.882;2023-01-15T07:09:52;8.90;99.90
32476;DHT22;18929;48.008;10.882;2023-01-15T07:12:19;9.00;99.90
32476;DHT22;18929;48.008;10.882;2023-01-15T07:14:46;8.90;99.90
32476;DHT22;18929;48.008;10.882;2023-01-15T07:17:13;8.80;99.90
32476;DHT22;18929;48.008;10.882;2023-01-15T07:19:40;8.70;99.90
32476;DHT22;18929;48.008;10.882;2023-01-15T07:22:07;9.00;99.90
32476;DHT22;18929;48.008;10.882;2023-01-15T07:24:34;8.90;99.90
32476;DHT22;18929;48.008;10.882;2023-01-15T07:27:03;8.90;99.90
32476;DHT22;18929;48.008;10.882;2023-01-15T07:29:30;8.90;99.90
32476;DHT22;18929;48.008;10.882;2023-01-15T07:31:56;8.90;99.90
32476;DHT22;18929;48.008;10.882;2023-01-15T07:34:23;9.00;99.90
32476;DHT22;18929;48.008;10.882;2023-01-15T07:36:50;9.00;99.90
32476;DHT22;18929;48.008;10.882;2023-01-15T07:39:17;9.10;99.90
32476;DHT22;18929;48.008;10.882;2023-01-15T07:41:44;8.90;99.90
32476;DHT22;18929;48.008;10.882;2023-01-15T07:44:29;9.30;99.90
32476;DHT22;18929;48.008;10.882;2023-01-15T07:47:14;9.20;99.90
32476;DHT22;18929;48.008;10.882;2023-01-15T07:49:59;9.10;99.90
32476;DHT22;18929;48.008;10.882;2023-01-15T07:52:27;9.10;99.90
32476;DHT22;18929;48.008;10.882;2023-01-15T07:54:53;9.40;99.90
32476;DHT22;18929;48.008;10.882;2023-01-15T07:57:20;9.40;99.90
32476;DHT22;18929;48.008;10.882;2023-01-15T07:59:49;9.20;99.90
32476;DHT22;18929;48.008;10.882;2023-01-15T08:02:15;9.30;99.90
32476;DHT22;18929;48.008;10.882;2023-01-15T08:04:42;9.30;99.90
32476;DHT22;18929;48.008;10.882;2023-01-15T08:07:10;9.30;99.90
32476;DHT22;18929;48.008;10.882;2023-01-15T08:09:37;9.40;99.90
32476;DHT22;18929;48.008;10.882;2023-01-15T08:12:04;9.10;99.90
32476;DHT22;18929;48.008;10.882;2023-01-15T08:14:49;9.50;99.90
32476;DHT22;18929;48.008;10.882;2023-01-15T08:17:34;9.70;99.90
32476;DHT22;18929;48.008;10.882;2023-01-15T08:20:01;9.40;99.90
32476;DHT22;18929;48.008;10.882;2023-01-15T08:22:28;9.20;99.90
32476;DHT22;18929;48.008;10.882;2023-01-15T08:24:54;9.20;99.90
32476;DHT22;18929;48.008;10.882;2023-01-15T08:27:21;9.60;99.90
32476;DHT22;18929;48.008;10.882;2023-01-15T08:29:49;9.60;99.90
32476;DHT22;18929;48.008;10.882;2023-01-15T08:32:16;9.80;99.90
32476;DHT22;18929;48.008;10.882;2023-01-15T08:34:43;9.30;99.90
32476;DHT22;18929;48.008;10.882;2023-01-15T08:37:10;9.40;99.90
32476;DHT22;18929;48.008;10.882;2023-01-15T08:39:36;9.50;99.90
32476;DHT22;18929;48.008;10.882;2023-01-15T08:42:03;9.40;99.90
32476;DHT22;18929;48.008;10.882;2023-01-15T08:44:30;9.20;99.90
32476;DHT22;18929;48.008;10.882;2023-01-15T08:46:59;9.60;99.90
32476;DHT22;18929;48.008;10.882;2023-01-15T08:49:27;10.00;99.90
32476;DHT22;18929;48.008;10.882;2023-01-15T08:51:55;10.20;99.90
32476;DHT22;18929;48.008;10.882;2023-01-15T08:54:22;10.40;99.90
32476;DHT22;18929;48.008;10.882;2023-01-15T08:56:50;10.00;99.90
32476;DHT22;18929;48.008;10.882;2023-01-15T08:59:17;9.80;99.90
32476;DHT22;18929;48.008;10.882;2023-01-15T09:01:43;9.70;99.90
32476;DHT22;18929;48.008;10.882;2023-01-15T09:04:13;10.00;99.90
32476;DHT22;18929;48.008;10.882;2023-01-15T09:06:40;9.80;99.90
32476;DHT22;18929;48.008;10.882;2023-01-15T09:09:07;10.30;99.90
32476;DHT22;18929;48.008;10.882;2023-01-15T09:11:35;10.20;99.90
32476;DHT22;18929;48.008;10.882;2023-01-15T09:14:04;9.80;99.90
32476;DHT22;18929;48.008;10.882;2023-01-15T09:16:31;9.70;99.90
32476;DHT22;18929;48.008;10.882;2023-01-15T09:18:58;9.90;99.90
32476;DHT22;18929;48.008;10.882;2023-01-15T09:21:26;9.80;99.90
32476;DHT22;18929;48.008;10.882;2023-01-15T09:23:58;10.10;99.90
32476;DHT22;18929;48.008;10.882;2023-01-15T09:26:34;10.30;99.90
32476;DHT22;18929;48.008;10.882;2023-01-15T09:29:05;11.10;99.90
32476;DHT22;18929;48.008;10.882;2023-01-15T09:31:36;10.40;99.90
32476;DHT22;18929;48.008;10.882;2023-01-15T09:34:14;10.40;99.90
32476;DHT22;18929;48.008;10.882;2023-01-15T09:39:55;10.60;99.90
32476;DHT22;18929;48.008;10.882;2023-01-15T09:45:36;11.10;99.90
32476;DHT22;18929;48.008;10.882;2023-01-15T09:48:28;10.90;99.90
32476;DHT22;18929;48.008;10.882;2023-01-15T09:51:03;10.60;99.90
32476;DHT22;18929;48.008;10.882;2023-01-15T09:56:21;10.50;99.90
32476;DHT22;18929;48.008;10.882;2023-01-15T09:58:50;10.80;99.90
32476;DHT22;18929;48.008;10.882;2023-01-15T10:01:18;10.90;99.90
32476;DHT22;18929;48.008;10.882;2023-01-15T10:03:46;11.00;99.90
32476;DHT22;18929;48.008;10.882;2023-01-15T10:06:16;10.70;99.90
32476;DHT22;18929;48.008;10.882;2023-01-15T10:08:46;10.10;99.90
32476;DHT22;18929;48.008;10.882;2023-01-15T10:11:22;9.00;99.90
32476;DHT22;18929;48.008;10.882;2023-01-15T10:14:12;9.00;99.90
32476;DHT22;18929;48.008;10.882;2023-01-15T10:16:41;7.70;99.90
32476;DHT22;18929;48.008;10.882;2023-01-15T10:19:08;7.70;99.90
32476;DHT22;18929;48.008;10.882;2023-01-15T10:21:36;8.40;99.90
32476;DHT22;18929;48.008;10.882;2023-01-15T10:24:08;7.70;99.90
32476;DHT22;18929;48.008;10.882;2023-01-15T10:26:38;8.20;99.90
32476;DHT22;18929;48.008;10.882;2023-01-15T10:29:11;8.70;99.90
32476;DHT22;18929;48.008;10.882;2023-01-15T10:31:46;8.80;99.90
32476;DHT22;18929;48.008;10.882;2023-01-15T10:37:02;8.20;99.90
32476;DHT22;18929;48.008;10.882;2023-01-15T10:39:33;7.70;99.90
32476;DHT22;18929;48.008;10.882;2023-01-15T10:42:06;7.70;99.90
32476;DHT22;18929;48.008;10.882;2023-01-15T10:44:40;8.60;99.90
32476;DHT22;18929;48.008;10.882;2023-01-15T10:47:10;8.10;99.90
32476;DHT22;18929;48.008;10.882;2023-01-15T10:49:38;8.30;99.90
32476;DHT22;18929;48.008;10.882;2023-01-15T10:52:06;8.30;99.90
32476;DHT22;18929;48.008;10.882;2023-01-15T10:54:37;7.90;99.90
32476;DHT22;18929;48.008;10.882;2023-01-15T10:57:07;8.10;99.90
32476;DHT22;18929;48.008;10.882;2023-01-15T10:59:37;8.20;99.90
32476;DHT22;18929;48.008;10.882;2023-01-15T11:02:15;7.80;99.90
32476;DHT22;18929;48.008;10.882;2023-01-15T11:04:45;7.50;99.90
32476;DHT22;18929;48.008;10.882;2023-01-15T11:07:12;7.50;99.90
32476;DHT22;18929;48.008;10.882;2023-01-15T11:09:39;7.60;99.90
32476;DHT22;18929;48.008;10.882;2023-01-15T11:12:16;8.10;99.90
32476;DHT22;18929;48.008;10.882;2023-01-15T11:15:11;7.90;99.90
32476;DHT22;18929;48.008;10.882;2023-01-15T11:17:56;8.10;99.90
32476;DHT22;18929;48.008;10.882;2023-01-15T11:20:42;7.90;99.90
32476;DHT22;18929;48.008;10.882;2023-01-15T11:23:10;7.90;99.90
32476;DHT22;18929;48.008;10.882;2023-01-15T11:25:38;7.30;99.90
32476;DHT22;18929;48.008;10.882;2023-01-15T11:28:10;7.40;99.90
32476;DHT22;18929;48.008;10.882;2023-01-15T11:30:40;8.50;99.90
32476;DHT22;18929;48.008;10.882;2023-01-15T11:33:19;8.70;99.90
32476;DHT22;18929;48.008;10.882;2023-01-15T11:35:48;7.70;99.90
32476;DHT22;18929;48.008;10.882;2023-01-15T11:38:15;8.30;99.90
32476;DHT22;18929;48.008;10.882;2023-01-15T11:40:49;8.20;99.90
32476;DHT22;18929;48.008;10.882;2023-01-15T11:43:21;7.80;99.90
32476;DHT22;18929;48.008;10.882;2023-01-15T11:46:19;8.40;99.90
32476;DHT22;18929;48.008;10.882;2023-01-15T11:49:07;8.20;99.90
32476;DHT22;18929;48.008;10.882;2023-01-15T11:51:51;7.70;99.90
32476;DHT22;18929;48.008;10.882;2023-01-15T11:54:18;7.50;99.90
32476;DHT22;18929;48.008;10.882;2023-01-15T11:56:46;8.10;99.90
32476;DHT22;18929;48.008;10.882;2023-01-15T11:59:15;7.80;99.90
32476;DHT22;18929;48.008;10.882;2023-01-15T12:01:48;7.80;99.90
32476;DHT22;18929;48.008;10.882;2023-01-15T12:06:57;7.80;99.90
32476;DHT22;18929;48.008;10.882;2023-01-15T12:09:26;7.70;99.90
32476;DHT22;18929;48.008;10.882;2023-01-15T12:11:58;8.00;99.90
32476;DHT22;18929;48.008;10.882;2023-01-15T12:14:32;8.20;99.90
32476;DHT22;18929;48.008;10.882;2023-01-15T12:17:05;7.80;99.90
32476;DHT22;18929;48.008;10.882;2023-01-15T12:19:36;7.90;99.90
32476;DHT22;18929;48.008;10.882;2023-01-15T12:22:12;8.00;99.90
32476;DHT22;18929;48.008;10.882;2023-01-15T12:27:37;7.60;99.90
32476;DHT22;18929;48.008;10.882;2023-01-15T12:30:13;7.30;99.90
32476;DHT22;18929;48.008;10.882;2023-01-15T12:32:42;7.50;99.90
32476;DHT22;18929;48.008;10.882;2023-01-15T12:35:14;7.50;99.90
32476;DHT22;18929;48.008;10.882;2023-01-15T12:37:43;7.30;99.90
32476;DHT22;18929;48.008;10.882;2023-01-15T12:40:16;7.80;99.90
32476;DHT22;18929;48.008;10.882;2023-01-15T12:42:49;7.80;99.90
32476;DHT22;18929;48.008;10.882;2023-01-15T12:45:37;7.50;99.90
32476;DHT22;18929;48.008;10.882;2023-01-15T12:48:10;7.00;99.90
32476;DHT22;18929;48.008;10.882;2023-01-15T12:50:38;7.30;99.90
32476;DHT22;18929;48.008;10.882;2023-01-15T12:53:11;7.30;99.90
32476;DHT22;18929;48.008;10.882;2023-01-15T12:55:39;7.10;99.90
32476;DHT22;18929;48.008;10.882;2023-01-15T12:58:11;7.10;99.90
32476;DHT22;18929;48.008;10.882;2023-01-15T13:00:42;6.40;99.90
32476;DHT22;18929;48.008;10.882;2023-01-15T13:03:14;7.00;99.90
32476;DHT22;18929;48.008;10.882;2023-01-15T13:05:44;6.50;99.90
32476;DHT22;18929;48.008;10.882;2023-01-15T13:08:14;5.40;99.90
32476;DHT22;18929;48.008;10.882;2023-01-15T13:10:44;6.50;99.90
32476;DHT22;18929;48.008;10.882;2023-01-15T13:13:15;7.00;99.90
32476;DHT22;18929;48.008;10.882;2023-01-15T13:15:47;7.20;99.90
32476;DHT22;18929;48.008;10.882;2023-01-15T13:18:20;7.10;99.90
32476;DHT22;18929;48.008;10.882;2023-01-15T13:20:52;6.40;99.90
32476;DHT22;18929;48.008;10.882;2023-01-15T13:23:28;5.80;99.90
32476;DHT22;18929;48.008;10.882;2023-01-15T13:25:59;6.60;99.90
32476;DHT22;18929;48.008;10.882;2023-01-15T13:28:34;7.00;99.90
32476;DHT22;18929;48.008;10.882;2023-01-15T13:31:08;7.20;99.90
32476;DHT22;18929;48.008;10.882;2023-01-15T13:33:38;6.30;99.90
32476;DHT22;18929;48.008;10.882;2023-01-15T13:36:11;6.90;99.90
32476;DHT22;18929;48.008;10.882;2023-01-15T13:38:39;7.30;99.90
32476;DHT22;18929;48.008;10.882;2023-01-15T13:41:07;7.10;99.90
32476;DHT22;18929;48.008;10.882;2023-01-15T13:43:35;7.30;99.90
32476;DHT22;18929;48.008;10.882;2023-01-15T13:46:04;7.60;99.90
32476;DHT22;18929;48.008;10.882;2023-01-15T13:48:35;7.60;99.90
32476;DHT22;18929;48.008;10.882;2023-01-15T13:51:06;7.60;99.90
32476;DHT22;18929;48.008;10.882;2023-01-15T13:53:34;7.50;99.90
32476;DHT22;18929;48.008;10.882;2023-01-15T13:56:02;7.50;99.90
32476;DHT22;18929;48.008;10.882;2023-01-15T13:58:31;7.50;99.90
32476;DHT22;18929;48.008;10.882;2023-01-15T14:01:03;7.20;99.90
32476;DHT22;18929;48.008;10.882;2023-01-15T14:03:30;7.20;99.90
32476;DHT22;18929;48.008;10.882;2023-01-15T14:05:59;7.20;99.90
32476;DHT22;18929;48.008;10.882;2023-01-15T14:08:27;7.20;99.90
32476;DHT22;18929;48.008;10.882;2023-01-15T14:10:54;7.20;99.90
32476;DHT22;18929;48.008;10.882;2023-01-15T14:13:31;7.30;99.90
32476;DHT22;18929;48.008;10.882;2023-01-15T14:16:03;7.10;99.90
32476;DHT22;18929;48.008;10.882;2023-01-15T14:18:36;7.00;99.90
32476;DHT22;18929;48.008;10.882;2023-01-15T14:21:10;6.90;99.90
32476;DHT22;18929;48.008;10.882;2023-01-15T14:23:52;6.90;99.90
32476;DHT22;18929;48.008;10.882;2023-01-15T14:26:22;6.60;99.90
32476;DHT22;18929;48.008;10.882;2023-01-15T14:28:54;6.70;99.90
32476;DHT22;18929;48.008;10.882;2023-01-15T14:31:30;6.60;99.90
32476;DHT22;18929;48.008;10.882;2023-01-15T14:34:08;6.70;99.90
32476;DHT22;18929;48.008;10.882;2023-01-15T14:36:39;6.70;99.90
32476;DHT22;18929;48.008;10.882;2023-01-15T14:39:21;6.60;99.90
32476;DHT22;18929;48.008;10.882;2023-01-15T14:41:53;6.50;99.90
32476;DHT22;18929;48.008;10.882;2023-01-15T14:44:38;6.50;99.90
32476;DHT22;18929;48.008;10.882;2023-01-15T14:47:10;6.40;99.90
32476;DHT22;18929;48.008;10.882;2023-01-15T14:49:44;6.60;99.90
32476;DHT22;18929;48.008;10.882;2023-01-15T14:52:15;6.70;99.90
32476;DHT22;18929;48.008;10.882;2023-01-15T14:54:47;6.60;99.90
32476;DHT22;18929;48.008;10.882;2023-01-15T14:57:14;6.70;99.90
32476;DHT22;18929;48.008;10.882;2023-01-15T14:59:41;6.60;99.90
32476;DHT22;18929;48.008;10.882;2023-01-15T15:02:13;6.80;99.90
32476;DHT22;18929;48.008;10.882;2023-01-15T15:04:48;6.90;99.90
32476;DHT22;18929;48.008;10.882;2023-01-15T15:07:19;6.80;99.90
32476;DHT22;18929;48.008;10.882;2023-01-15T15:09:49;6.60;99.90
32476;DHT22;18929;48.008;10.882;2023-01-15T15:12:28;6.80;99.90
32476;DHT22;18929;48.008;10.882;2023-01-15T15:14:58;6.60;99.90
32476;DHT22;18929;48.008;10.882;2023-01-15T15:17:32;6.50;99.90
32476;DHT22;18929;48.008;10.882;2023-01-15T15:20:06;6.50;99.90
32476;DHT22;18929;48.008;10.882;2023-01-15T15:22:39;6.40;99.90
32476;DHT22;18929;48.008;10.882;2023-01-15T15:25:07;6.30;99.90
32476;DHT22;18929;48.008;10.882;2023-01-15T15:27:36;6.30;99.90
32476;DHT22;18929;48.008;10.882;2023-01-15T15:30:03;6.30;99.90
32476;DHT22;18929;48.008;10.882;2023-01-15T15:32:31;6.30;99.90
32476;DHT22;18929;48.008;10.882;2023-01-15T15:35:04;6.40;99.90
32476;DHT22;18929;48.008;10.882;2023-01-15T15:37:42;6.20;99.90
32476;DHT22;18929;48.008;10.882;2023-01-15T15:40:13;6.00;99.90
32476;DHT22;18929;48.008;10.882;2023-01-15T15:42:42;6.00;99.90
32476;DHT22;18929;48.008;10.882;2023-01-15T15:45:30;6.00;99.90
32476;DHT22;18929;48.008;10.882;2023-01-15T15:48:16;6.00;99.90
32476;DHT22;18929;48.008;10.882;2023-01-15T15:51:01;6.00;99.90
32476;DHT22;18929;48.008;10.882;2023-01-15T15:53:30;5.90;99.90
32476;DHT22;18929;48.008;10.882;2023-01-15T15:55:57;6.10;99.90
32476;DHT22;18929;48.008;10.882;2023-01-15T15:58:26;5.90;99.90
32476;DHT22;18929;48.008;10.882;2023-01-15T16:00:55;6.10;99.90
32476;DHT22;18929;48.008;10.882;2023-01-15T16:03:23;6.00;99.90